Chem Orion — V7GZ9 — position and weather

sailwx.info

Track history (hours):
 
Tides and Currents Weather Stations Pressure Air Temp Water Temp Dewpoint Dewpoint Depression Visibility Wind Speed Wind Dir Waves Ship Positions

Chem Orion

Last reported at 2014-Sep-14 21:33 UTC. Time now 2014-Sep-15 04:05 UTC.
Position N 38°38' E 008°24'.

Length 125 m; draft 5.1 m.

Type: Ship (hazmat cat D). MMSI: 538002197.

Date/timePositionNaut miles runAvg speedWind from/ knotsBaromVisibWave heightAir tempDewpointWater temp
2014-Sep-14 21:33N 38°38' E 008°24'8511.7
2014-Sep-14 14:15N 37°59' E 009°60'912.4
2014-Sep-14 13:31N 37°55' E 010°10'1412.0
2014-Sep-14 12:19N 37°48' E 010°26'2511.8
2014-Sep-14 10:12N 37°36' E 010°54'812.0
2014-Sep-14 09:33N 37°32' E 011°03'8311.7
2014-Sep-14 02:26N 36°46' E 012°30'1011.7
2014-Sep-14 01:33N 36°37' E 012°36'4711.7
2014-Sep-13 21:33N 35°58' E 013°08'1110.8
2014-Sep-13 20:33N 35°48' E 013°09'1111.4
2014-Sep-13 19:33N 35°37' E 013°05'4111.9
2014-Sep-13 16:04N 34°59' E 012°45'611.3
2014-Sep-13 15:33N 34°56' E 012°39'1211.5
2014-Sep-13 14:31N 34°51' E 012°26'2611.3
2014-Sep-13 12:11N 34°39' E 011°57'58 2.0
2014-Sep-12 07:10N 34°44' E 010°46'0 0.0
2014-Sep-10 17:15N 34°44' E 010°46'0 0.0
2014-Sep-10 13:33N 34°44' E 010°46'0 0.0
2014-Sep-10 12:33N 34°44' E 010°46'3 3.0
2014-Sep-10 11:33N 34°41' E 010°48'1 0.2
2014-Sep-10 06:28N 34°41' E 010°50'0 0.0
2014-Sep-09 17:03N 34°41' E 010°50'0 0.1
2014-Sep-09 16:11N 34°41' E 010°50'124 6.0
2014-Sep-08 19:33N 36°17' E 012°27'2912.4
2014-Sep-08 17:13N 36°45' E 012°15'811.9
2014-Sep-08 16:33N 36°52' E 012°11'1110.7
2014-Sep-08 15:33N 36°58' E 012°01'2610.9
2014-Sep-08 13:13N 37°11' E 011°33'711.0
2014-Sep-08 12:33N 37°15' E 011°25'1110.8
2014-Sep-08 11:33N 37°20' E 011°13'1510.7
2014-Sep-08 10:08N 37°25' E 010°55'1711.1
2014-Sep-08 08:33N 37°29' E 010°34'1111.3
2014-Sep-08 07:33N 37°32' E 010°20'1611.4
2014-Sep-08 06:07N 37°33' E 009°59'711.5
2014-Sep-08 05:33N 37°34' E 009°51'1211.8
2014-Sep-08 04:32N 37°34' E 009°36'1212.0
2014-Sep-08 03:32N 37°35' E 009°21'1212.0
2014-Sep-08 02:33N 37°36' E 009°06'1211.8
2014-Sep-08 01:33N 37°36' E 008°51'1211.5
2014-Sep-08 00:32N 37°36' E 008°36'1111.3
2014-Sep-07 23:33N 37°35' E 008°23'2511.1
2014-Sep-07 21:19N 37°33' E 007°51'2111.1
2014-Sep-07 19:28N 37°32' E 007°25'1111.1
2014-Sep-07 18:27N 37°31' E 007°11'2110.9
2014-Sep-07 16:32N 37°29' E 006°45'1311.3
2014-Sep-07 15:23N 37°28' E 006°29'8 9.6
2014-Sep-07 14:33N 37°28' E 006°19'1010.1
2014-Sep-07 13:32N 37°27' E 006°06'1210.2
2014-Sep-07 12:22N 37°26' E 005°51'910.4
2014-Sep-07 11:32N 37°26' E 005°40'1110.6
2014-Sep-07 10:33N 37°25' E 005°27'1311.1
2014-Sep-07 09:21N 37°24' E 005°10'13 6.6
2014-Sep-07 07:19N 37°23' E 004°53'0 0.4
2014-Sep-07 06:33N 37°23' E 004°53'1110.2
2014-Sep-07 05:30N 37°22' E 004°39'1111.6
2014-Sep-07 04:33N 37°21' E 004°26'1111.4
2014-Sep-07 03:33N 37°21' E 004°11'1211.7
2014-Sep-07 02:33N 37°19' E 003°57'1612.0
2014-Sep-07 01:15N 37°17' E 003°37'812.1
2014-Sep-07 00:33N 37°14' E 003°27'1212.1
2014-Sep-06 23:33N 37°11' E 003°12'1212.1
2014-Sep-06 22:33N 37°09' E 002°58'1212.0
2014-Sep-06 21:33N 37°06' E 002°43'1211.6
2014-Sep-06 20:34N 37°04' E 002°29'1211.4
2014-Sep-06 19:31N 37°02' E 002°14'1611.4
2014-Sep-06 18:07N 36°58' E 001°55'611.3
2014-Sep-06 17:33N 36°56' E 001°47'1311.3
2014-Sep-06 16:26N 36°53' E 001°32'33512.0
2014-Sep-05 12:33N 35°55' W 005°18'1 1.5
2014-Sep-05 11:33N 35°54' W 005°19'0 0.0
2014-Sep-05 10:33N 35°54' W 005°19'0 0.0
2014-Sep-05 09:33N 35°54' W 005°19'0 0.0
2014-Sep-05 08:33N 35°54' W 005°19'1 1.0
2014-Sep-05 07:33N 35°55' W 005°19'6 6.0
2014-Sep-05 06:33N 35°57' W 005°26'7410.5
2014-Sep-04 23:33N 35°58' W 006°57'1310.4
2014-Sep-04 22:18N 36°02' W 007°12'810.4
2014-Sep-04 21:33N 36°05' W 007°21'  
Track history (hours):
 
Tides and Currents Weather Stations Pressure Air Temp Water Temp Dewpoint Dewpoint Depression Visibility Wind Speed Wind Dir Waves Ship Positions

Chem Orion

Last reported at 2014-Sep-14 21:33 UTC. Time now 2014-Sep-15 04:05 UTC.
Position N 38°38' E 008°24'.

Length 125 m; draft 5.1 m.

Type: Ship (hazmat cat D). MMSI: 538002197.

Date/timePositionNaut miles runAvg speedWind from/ knotsBaromVisibWave heightAir tempDewpointWater temp
2014-Sep-14 21:33N 38°38' E 008°24'8511.7
2014-Sep-14 14:15N 37°59' E 009°60'912.4
2014-Sep-14 13:31N 37°55' E 010°10'1412.0
2014-Sep-14 12:19N 37°48' E 010°26'2511.8
2014-Sep-14 10:12N 37°36' E 010°54'812.0
2014-Sep-14 09:33N 37°32' E 011°03'8311.7
2014-Sep-14 02:26N 36°46' E 012°30'1011.7
2014-Sep-14 01:33N 36°37' E 012°36'4711.7
2014-Sep-13 21:33N 35°58' E 013°08'1110.8
2014-Sep-13 20:33N 35°48' E 013°09'1111.4
2014-Sep-13 19:33N 35°37' E 013°05'4111.9
2014-Sep-13 16:04N 34°59' E 012°45'611.3
2014-Sep-13 15:33N 34°56' E 012°39'1211.5
2014-Sep-13 14:31N 34°51' E 012°26'2611.3
2014-Sep-13 12:11N 34°39' E 011°57'58 2.0
2014-Sep-12 07:10N 34°44' E 010°46'0 0.0
2014-Sep-10 17:15N 34°44' E 010°46'0 0.0
2014-Sep-10 13:33N 34°44' E 010°46'0 0.0
2014-Sep-10 12:33N 34°44' E 010°46'3 3.0
2014-Sep-10 11:33N 34°41' E 010°48'1 0.2
2014-Sep-10 06:28N 34°41' E 010°50'0 0.0
2014-Sep-09 17:03N 34°41' E 010°50'0 0.1
2014-Sep-09 16:11N 34°41' E 010°50'124 6.0
2014-Sep-08 19:33N 36°17' E 012°27'2912.4
2014-Sep-08 17:13N 36°45' E 012°15'811.9
2014-Sep-08 16:33N 36°52' E 012°11'1110.7
2014-Sep-08 15:33N 36°58' E 012°01'2610.9
2014-Sep-08 13:13N 37°11' E 011°33'711.0
2014-Sep-08 12:33N 37°15' E 011°25'1110.8
2014-Sep-08 11:33N 37°20' E 011°13'1510.7
2014-Sep-08 10:08N 37°25' E 010°55'1711.1
2014-Sep-08 08:33N 37°29' E 010°34'1111.3
2014-Sep-08 07:33N 37°32' E 010°20'1611.4
2014-Sep-08 06:07N 37°33' E 009°59'711.5
2014-Sep-08 05:33N 37°34' E 009°51'1211.8
2014-Sep-08 04:32N 37°34' E 009°36'1212.0
2014-Sep-08 03:32N 37°35' E 009°21'1212.0
2014-Sep-08 02:33N 37°36' E 009°06'1211.8
2014-Sep-08 01:33N 37°36' E 008°51'1211.5
2014-Sep-08 00:32N 37°36' E 008°36'1111.3
2014-Sep-07 23:33N 37°35' E 008°23'2511.1
2014-Sep-07 21:19N 37°33' E 007°51'2111.1
2014-Sep-07 19:28N 37°32' E 007°25'1111.1
2014-Sep-07 18:27N 37°31' E 007°11'2110.9
2014-Sep-07 16:32N 37°29' E 006°45'1311.3
2014-Sep-07 15:23N 37°28' E 006°29'8 9.6
2014-Sep-07 14:33N 37°28' E 006°19'1010.1
2014-Sep-07 13:32N 37°27' E 006°06'1210.2
2014-Sep-07 12:22N 37°26' E 005°51'910.4
2014-Sep-07 11:32N 37°26' E 005°40'1110.6
2014-Sep-07 10:33N 37°25' E 005°27'1311.1
2014-Sep-07 09:21N 37°24' E 005°10'13 6.6
2014-Sep-07 07:19N 37°23' E 004°53'0 0.4
2014-Sep-07 06:33N 37°23' E 004°53'1110.2
2014-Sep-07 05:30N 37°22' E 004°39'1111.6
2014-Sep-07 04:33N 37°21' E 004°26'1111.4
2014-Sep-07 03:33N 37°21' E 004°11'1211.7
2014-Sep-07 02:33N 37°19' E 003°57'1612.0
2014-Sep-07 01:15N 37°17' E 003°37'812.1
2014-Sep-07 00:33N 37°14' E 003°27'1212.1
2014-Sep-06 23:33N 37°11' E 003°12'1212.1
2014-Sep-06 22:33N 37°09' E 002°58'1212.0
2014-Sep-06 21:33N 37°06' E 002°43'1211.6
2014-Sep-06 20:34N 37°04' E 002°29'1211.4
2014-Sep-06 19:31N 37°02' E 002°14'1611.4
2014-Sep-06 18:07N 36°58' E 001°55'611.3
2014-Sep-06 17:33N 36°56' E 001°47'1311.3
2014-Sep-06 16:26N 36°53' E 001°32'33512.0
2014-Sep-05 12:33N 35°55' W 005°18'1 1.5
2014-Sep-05 11:33N 35°54' W 005°19'0 0.0
2014-Sep-05 10:33N 35°54' W 005°19'0 0.0
2014-Sep-05 09:33N 35°54' W 005°19'0 0.0
2014-Sep-05 08:33N 35°54' W 005°19'1 1.0
2014-Sep-05 07:33N 35°55' W 005°19'6 6.0
2014-Sep-05 06:33N 35°57' W 005°26'7410.5
2014-Sep-04 23:33N 35°58' W 006°57'1310.4
2014-Sep-04 22:18N 36°02' W 007°12'810.4
2014-Sep-04 21:33N 36°05' W 007°21'  

Dump ship's entire track history